KMIW/MIW METAR and TAF weather

Enter ICAO airport designator
Station Type Date Time Source
KMIW METAR 2022/06/25 22:53 UTC NOAA

KMIW 252253Z AUTO 04005KT 10SM FEW027 FEW033 28/22 A2994 RMK AO2 SLP131 T02830222


Station Type Date Time Source
KMIW Decoded METAR 2022/06/25 22:53 UTC NOAA

MARSHALLTOWN MUNICIPAL AIRPORT , IA, United States (KMIW) 42-07N 92-55W 296M
Jun 25, 2022 - 06:53 PM EDT / 2022.06.25 2253 UTC
Wind: from the NE (040 degrees) at 6 MPH (5 KT):0
Visibility: 10 mile(s):0
Sky conditions: mostly clear
Temperature: 82.9 F (28.3 C)
Dew Point: 72.0 F (22.2 C)
Relative Humidity: 69%
Pressure (altimeter): 29.94 in. Hg (1013 hPa)
ob: KMIW 252253Z AUTO 04005KT 10SM FEW027 FEW033 28/22 A2994 RMK AO2 SLP131 T02830222
cycle: 23

Station Type Date Time Source
KMIW TAF UTC NOAA

Error!

Example: see airport list